Pineda de Mar, Spain
Current Conditions -  °F | °C
As of 2:30 PM on Thursday 30 Oct 2014 (Local Time) from LEGE Reporting Station
Broken Clouds Broken Clouds  
Wind Chill: 68°   Ceiling: 3000
Heat Index: 68°   Visibility: 6mi
Dew Point: 57°   Wind: 2mph
Humidity: 68%   Direction: NA
Pressure: 30.18"   Gusts: NA
Location:  41.63°N, 2.69°E
Report Text: LEGE 301330Z VRB02KT 9000 FEW015 BKN030 20/14 Q1022
Loading
Personal Weather Stations






























Interactive Weather Map
Tropical Storm Tracking
New forecast layout! Learn more

10-Day Weather Forecast

Advertisements
Track Severe Weather on mobile